Wizard — WDC6082 — position and weather

sailwx.info

Track history (hours):
 
Tides and Currents Weather Stations Pressure Air Temp Water Temp Dewpoint Dewpoint Depression Visibility Wind Speed Wind Dir Waves Ship Positions

Wizard

Owner: K. H.Colburn Inc, Redmond, WA. More information available from US FCC via Universal Licensing System and Coast Guard Vessel Documentation Center.

Last reported at 2018-Feb-18 20:28 UTC. Time now 2018-Feb-18 22:17 UTC.
Position N 47°40' W 122°23'.

Length 52 m; draft 0.4 m.

MMSI: 5491.

Date/timePositionNaut miles runAvg speedWind from/ knotsBaromVisibWave heightAir tempDewpointWater temp
2018-Feb-18 20:28N 47°40' W 122°23'0 0.0
2018-Feb-18 20:00N 47°40' W 122°23'0 0.0
2018-Feb-18 19:31N 47°40' W 122°23'0 0.0
2018-Feb-18 19:00N 47°40' W 122°23'0 0.0
2018-Feb-18 18:30N 47°40' W 122°23'0 0.0
2018-Feb-18 18:01N 47°40' W 122°23'0 0.0
2018-Feb-18 17:25N 47°40' W 122°23'0 0.0
2018-Feb-18 17:01N 47°40' W 122°23'0 0.0
2018-Feb-18 16:31N 47°40' W 122°23'0 0.0
2018-Feb-18 16:01N 47°40' W 122°23'0 0.0
2018-Feb-18 15:31N 47°40' W 122°23'0 0.0
2018-Feb-18 15:00N 47°40' W 122°23'0 0.0
2018-Feb-18 14:30N 47°40' W 122°23'0 0.0
2018-Feb-18 14:01N 47°40' W 122°23'0 0.0
2018-Feb-18 13:31N 47°40' W 122°23'0 0.0
2018-Feb-18 13:01N 47°40' W 122°23'0 0.0
2018-Feb-18 12:30N 47°40' W 122°23'0 0.0
2018-Feb-18 12:00N 47°40' W 122°23'0 0.0
2018-Feb-18 11:31N 47°40' W 122°23'0 0.0
2018-Feb-18 11:01N 47°40' W 122°23'0 0.0
2018-Feb-18 10:31N 47°40' W 122°23'0 0.0
2018-Feb-18 10:00N 47°40' W 122°23'0 0.0
2018-Feb-18 09:31N 47°40' W 122°23'0 0.0
2018-Feb-18 09:00N 47°40' W 122°23'0 0.0
2018-Feb-18 08:30N 47°40' W 122°23'0 0.0
2018-Feb-18 08:00N 47°40' W 122°23'0 0.0
2018-Feb-18 07:31N 47°40' W 122°23'0 0.0
2018-Feb-18 07:00N 47°40' W 122°23'0 0.0
2018-Feb-18 06:30N 47°40' W 122°23'0 0.0
2018-Feb-18 06:01N 47°40' W 122°23'0 0.0
2018-Feb-18 05:31N 47°40' W 122°23'0 0.0
2018-Feb-18 05:00N 47°40' W 122°23'0 0.0
2018-Feb-18 04:31N 47°40' W 122°23'0 0.0
2018-Feb-18 04:01N 47°40' W 122°23'0 0.0
2018-Feb-18 03:31N 47°40' W 122°23'0 0.0
2018-Feb-18 03:01N 47°40' W 122°23'0 0.0
2018-Feb-18 02:31N 47°40' W 122°23'0 0.0
2018-Feb-18 02:00N 47°40' W 122°23'0 0.0
2018-Feb-18 01:31N 47°40' W 122°23'0 0.0
2018-Feb-18 01:00N 47°40' W 122°23'0 0.7
2018-Feb-18 00:30N 47°40' W 122°24'2 4.7
2018-Feb-18 00:01N 47°42' W 122°26'5 9.1
2018-Feb-17 23:31N 47°46' W 122°27'5 9.9
2018-Feb-17 23:01N 47°51' W 122°29'510.3
2018-Feb-17 22:31N 47°56' W 122°32'55 8.7
2018-Feb-17 16:12N 48°13' W 123°50'2 8.1
2018-Feb-17 15:59N 48°13' W 123°52'5 8.3
2018-Feb-17 15:19N 48°14' W 124°00'3 9.2
2018-Feb-17 14:58N 48°16' W 124°05'5 9.3
2018-Feb-17 14:28N 48°18' W 124°11'5 9.9
2018-Feb-17 13:59N 48°20' W 124°17'510.5
2018-Feb-17 13:30N 48°22' W 124°24'510.5
2018-Feb-17 13:01N 48°24' W 124°31'510.3
2018-Feb-17 12:31N 48°26' W 124°38'510.6
2018-Feb-17 12:00N 48°28' W 124°46'510.5
2018-Feb-17 11:31N 48°29' W 124°54'611.0
2018-Feb-17 11:00N 48°29' W 125°02'810.8
2018-Feb-17 10:13N 48°31' W 125°15'310.7
2018-Feb-17 09:58N 48°32' W 125°18'510.3
2018-Feb-17 09:31N 48°34' W 125°25'510.0
2018-Feb-17 09:00N 48°36' W 125°32'5 9.9
2018-Feb-17 08:30N 48°38' W 125°39'5 9.7
2018-Feb-17 08:01N 48°40' W 125°45'5 9.3
2018-Feb-17 07:30N 48°42' W 125°52'5 9.2
2018-Feb-17 07:00N 48°44' W 125°58'5 9.5
2018-Feb-17 06:31N 48°46' W 126°05'5 9.3
2018-Feb-17 06:01N 48°48' W 126°11'5 9.8
2018-Feb-17 05:29N 48°50' W 126°18'510.3
2018-Feb-17 04:59N 48°52' W 126°25'  
Track history (hours):
 
Tides and Currents Weather Stations Pressure Air Temp Water Temp Dewpoint Dewpoint Depression Visibility Wind Speed Wind Dir Waves Ship Positions

Wizard

Owner: K. H.Colburn Inc, Redmond, WA. More information available from US FCC via Universal Licensing System and Coast Guard Vessel Documentation Center.

Last reported at 2018-Feb-18 20:28 UTC. Time now 2018-Feb-18 22:17 UTC.
Position N 47°40' W 122°23'.

Length 52 m; draft 0.4 m.

MMSI: 5491.

Date/timePositionNaut miles runAvg speedWind from/ knotsBaromVisibWave heightAir tempDewpointWater temp
2018-Feb-18 20:28N 47°40' W 122°23'0 0.0
2018-Feb-18 20:00N 47°40' W 122°23'0 0.0
2018-Feb-18 19:31N 47°40' W 122°23'0 0.0
2018-Feb-18 19:00N 47°40' W 122°23'0 0.0
2018-Feb-18 18:30N 47°40' W 122°23'0 0.0
2018-Feb-18 18:01N 47°40' W 122°23'0 0.0
2018-Feb-18 17:25N 47°40' W 122°23'0 0.0
2018-Feb-18 17:01N 47°40' W 122°23'0 0.0
2018-Feb-18 16:31N 47°40' W 122°23'0 0.0
2018-Feb-18 16:01N 47°40' W 122°23'0 0.0
2018-Feb-18 15:31N 47°40' W 122°23'0 0.0
2018-Feb-18 15:00N 47°40' W 122°23'0 0.0
2018-Feb-18 14:30N 47°40' W 122°23'0 0.0
2018-Feb-18 14:01N 47°40' W 122°23'0 0.0
2018-Feb-18 13:31N 47°40' W 122°23'0 0.0
2018-Feb-18 13:01N 47°40' W 122°23'0 0.0
2018-Feb-18 12:30N 47°40' W 122°23'0 0.0
2018-Feb-18 12:00N 47°40' W 122°23'0 0.0
2018-Feb-18 11:31N 47°40' W 122°23'0 0.0
2018-Feb-18 11:01N 47°40' W 122°23'0 0.0
2018-Feb-18 10:31N 47°40' W 122°23'0 0.0
2018-Feb-18 10:00N 47°40' W 122°23'0 0.0
2018-Feb-18 09:31N 47°40' W 122°23'0 0.0
2018-Feb-18 09:00N 47°40' W 122°23'0 0.0
2018-Feb-18 08:30N 47°40' W 122°23'0 0.0
2018-Feb-18 08:00N 47°40' W 122°23'0 0.0
2018-Feb-18 07:31N 47°40' W 122°23'0 0.0
2018-Feb-18 07:00N 47°40' W 122°23'0 0.0
2018-Feb-18 06:30N 47°40' W 122°23'0 0.0
2018-Feb-18 06:01N 47°40' W 122°23'0 0.0
2018-Feb-18 05:31N 47°40' W 122°23'0 0.0
2018-Feb-18 05:00N 47°40' W 122°23'0 0.0
2018-Feb-18 04:31N 47°40' W 122°23'0 0.0
2018-Feb-18 04:01N 47°40' W 122°23'0 0.0
2018-Feb-18 03:31N 47°40' W 122°23'0 0.0
2018-Feb-18 03:01N 47°40' W 122°23'0 0.0
2018-Feb-18 02:31N 47°40' W 122°23'0 0.0
2018-Feb-18 02:00N 47°40' W 122°23'0 0.0
2018-Feb-18 01:31N 47°40' W 122°23'0 0.0
2018-Feb-18 01:00N 47°40' W 122°23'0 0.7
2018-Feb-18 00:30N 47°40' W 122°24'2 4.7
2018-Feb-18 00:01N 47°42' W 122°26'5 9.1
2018-Feb-17 23:31N 47°46' W 122°27'5 9.9
2018-Feb-17 23:01N 47°51' W 122°29'510.3
2018-Feb-17 22:31N 47°56' W 122°32'55 8.7
2018-Feb-17 16:12N 48°13' W 123°50'2 8.1
2018-Feb-17 15:59N 48°13' W 123°52'5 8.3
2018-Feb-17 15:19N 48°14' W 124°00'3 9.2
2018-Feb-17 14:58N 48°16' W 124°05'5 9.3
2018-Feb-17 14:28N 48°18' W 124°11'5 9.9
2018-Feb-17 13:59N 48°20' W 124°17'510.5
2018-Feb-17 13:30N 48°22' W 124°24'510.5
2018-Feb-17 13:01N 48°24' W 124°31'510.3
2018-Feb-17 12:31N 48°26' W 124°38'510.6
2018-Feb-17 12:00N 48°28' W 124°46'510.5
2018-Feb-17 11:31N 48°29' W 124°54'611.0
2018-Feb-17 11:00N 48°29' W 125°02'810.8
2018-Feb-17 10:13N 48°31' W 125°15'310.7
2018-Feb-17 09:58N 48°32' W 125°18'510.3
2018-Feb-17 09:31N 48°34' W 125°25'510.0
2018-Feb-17 09:00N 48°36' W 125°32'5 9.9
2018-Feb-17 08:30N 48°38' W 125°39'5 9.7
2018-Feb-17 08:01N 48°40' W 125°45'5 9.3
2018-Feb-17 07:30N 48°42' W 125°52'5 9.2
2018-Feb-17 07:00N 48°44' W 125°58'5 9.5
2018-Feb-17 06:31N 48°46' W 126°05'5 9.3
2018-Feb-17 06:01N 48°48' W 126°11'5 9.8
2018-Feb-17 05:29N 48°50' W 126°18'510.3
2018-Feb-17 04:59N 48°52' W 126°25'  

Dump ship's entire track history